• Join FlightAware (Why Join?)
  • Login
  • US Flag 
07:29PM EDT


 

Airport Tracker/Info


-or-


 

Live Flight TrackerFlight Track Log ✈ ERR734 ✈ 28-Apr-2013 ✈ PAFA / FAI - PAGA / GAL

Flight Track Log - Related Links

Times and Time Zones

All times are in EDT time to prevent confusion due to time zone crossing. See the ERR734 flight status page for this flight to view local times or setup timezone preferences in your user account.

Time Position Orientation Groundspeed Altitude Reporting Facility
EDT Latitude Longitude Course Direction KTS MPH feet Rate Location/Type
01:09PM 64.7500 -147.9500 270° West 140 161 4,300  Level Anchorage Center
01:10PM 64.7667 -148.0500 291° West 150 173 6,100 1,800 Climbing Anchorage Center
01:11PM 64.7667 -148.1500 270° West 160 184 8,000 1,680 Climbing Anchorage Center
01:12PM 64.7667 -148.2500 270° West 170 196 9,600 1,620 Climbing Anchorage Center
01:13PM 64.7667 -148.3500 270° West 170 196 11,300 1,560 Climbing Anchorage Center
01:14PM 64.8000 -148.7600 270° West  Level FlightAware Approximate
01:14PM 64.7667 -148.4667 270° West 170 196 12,800  Level Anchorage Center
01:15PM 64.7833 -148.5667 291° West 170 196 14,400 1,680 Climbing Anchorage Center
01:16PM 64.7833 -148.6833 270° West 170 196 16,200 1,500 Climbing Anchorage Center
01:17PM 64.7833 -148.8000 270° West 180 207 17,500 1,260 Climbing Anchorage Center
01:18PM 64.7833 -148.9167 270° West 180 207 18,800 1,140 Climbing Anchorage Center
01:19PM 64.7833 -149.0500 270° West 190 219 19,900 1,200 Climbing Anchorage Center
01:20PM 64.7833 -149.1667 270° West 190 219 21,200 1,140 Climbing Anchorage Center
01:21PM 64.8000 -149.2833 289° West 190 219 22,200 900 Climbing Anchorage Center
01:22PM 64.8000 -149.4167 270° West 190 219 23,100 900 Climbing Anchorage Center
01:23PM 64.8000 -149.5500 270° West 210 242 24,000 420 Climbing Anchorage Center
01:24PM 64.8000 -149.7000 270° West 230 265 24,000  Level Anchorage Center
01:25PM 64.8000 -149.8500 270° West 240 276 24,000  Level Anchorage Center
01:26PM 64.8000 -150.0167 270° West 240 276 24,000  Level Anchorage Center
01:27PM 64.8000 -150.1667 270° West 240 276 24,000  Level Anchorage Center
01:28PM 64.8000 -150.3333 270° West 240 276 24,000  Level Anchorage Center
01:29PM 64.8167 -150.5000 283° West 250 288 24,000  Level Anchorage Center
01:30PM 64.8167 -150.6500 270° West 240 276 24,000  Level Anchorage Center
01:31PM 64.8167 -150.8167 270° West 250 288 24,000  Level Anchorage Center
01:32PM 64.8167 -150.9833 270° West 250 288 24,000  Level Anchorage Center
01:33PM 64.8167 -151.1500 270° West 250 288 24,000  Level Anchorage Center
01:34PM 64.8167 -151.3167 270° West 260 299 24,000  Level Anchorage Center
01:35PM 64.8167 -151.4667 270° West 250 288 24,000  Level Anchorage Center
01:36PM 64.8167 -151.6333 270° West 250 288 24,000  Level Anchorage Center
01:37PM 64.8167 -151.8000 270° West 250 288 24,000  Level Anchorage Center
01:38PM 64.8167 -151.9500 270° West 250 288 24,000  Level Anchorage Center
01:39PM 64.8167 -152.1000 270° West 240 276 24,000  Level Anchorage Center
01:40PM 64.8167 -152.2667 270° West 240 276 24,000  Level Anchorage Center
01:41PM 64.8167 -152.4167 270° West 240 276 24,000  Level Anchorage Center
01:42PM 64.8167 -152.5833 270° West 250 288 24,000  Level Anchorage Center
01:43PM 64.8167 -152.7500 270° West 250 288 24,000  Level Anchorage Center
01:44PM 64.8167 -152.9000 270° West 250 288 24,000  Level Anchorage Center
01:45PM 64.8000 -153.0667 257° West 240 276 24,000  Level Anchorage Center
01:46PM 64.8167 -153.2333 283° West 250 288 24,000  Level Anchorage Center
01:47PM 64.8000 -153.3833 255° West 240 276 24,000  Level Anchorage Center
01:48PM 64.8000 -153.5500 270° West 240 276 24,000  Level Anchorage Center
01:49PM 64.8000 -153.7167 270° West 250 288 24,000  Level Anchorage Center
01:50PM 64.8000 -153.8667 270° West 250 288 24,000  Level Anchorage Center
01:51PM 64.8000 -154.0333 270° West 250 288 24,000 -180 Level Anchorage Center
01:52PM 64.8000 -154.2000 270° West 250 288 23,700 -900 Descending Anchorage Center
01:53PM 64.8000 -154.3667 270° West 260 299 22,200 -1,560 Descending Anchorage Center
01:54PM 64.7833 -154.5333 257° West 250 288 20,600 -1,560 Descending Anchorage Center
01:55PM 64.7833 -154.7000 270° West 250 288 19,100 -1,380 Descending Anchorage Center
01:56PM 64.7833 -154.8500 270° West 240 276 17,900 -1,140 Descending Anchorage Center
01:57PM 64.7833 -155.0167 270° West 260 299 16,900 -1,140 Descending Anchorage Center
01:58PM 64.7667 -155.1833 257° West 260 299 15,700 -1,140 Descending Anchorage Center
01:59PM 64.7667 -155.3667 270° West 260 299 14,700 -1,080 Descending Anchorage Center
02:00PM 64.7667 -155.5167 270° West 230 265 13,600 -1,260 Descending Anchorage Center
02:01PM 64.7667 -155.6833 270° West 260 299 12,200 -1,500 Descending Anchorage Center
02:02PM 64.7500 -155.8500 257° West 250 288 10,600 -1,860 Descending Anchorage Center
02:03PM 64.7500 -156.0000 270° West 250 288 8,500 -2,040 Descending Anchorage Center
02:04PM 64.7500 -156.1667 270° West 240 276 6,600 -1,740 Descending Anchorage Center
02:05PM 64.7500 -156.3000 270° West 210 242 5,100 -1,500 Descending Anchorage Center
02:08PM 64.7375 -156.5167 259° West  Level FlightAware Approximate
02:15PM 64.7333 -156.9333 270° West  Level FlightAware Approximate
02:16PM 64.7362 -156.9374 270° West  Level Estimated
02:17PM 64.7333 -156.9333 270° West  Level FlightAware Approximate
02:18PM 64.7362 -156.9374 270° West  Level Estimated
02:19PM 64.7333 -156.9333 270° West  Level FlightAware Approximate
02:20PM 64.7362 -156.9374 270° West  Level Estimated
02:21PM 64.7333 -156.9333 270° West  Level FlightAware Approximate
02:22PM 64.7362 -156.9374 270° West  Level Estimated
02:23PM 64.7333 -156.9333 270° West  Level FlightAware Approximate
02:24PM 64.7362 -156.9374 270° West  Level Estimated